createdAt,value
2023-04-27T00:00:25.786Z,963.31
2023-04-27T00:01:25.794Z,963.31
2023-04-27T00:02:25.882Z,963.30
2023-04-27T00:03:26.002Z,963.28
2023-04-27T00:04:25.966Z,963.27
2023-04-27T00:05:25.825Z,963.26
2023-04-27T00:06:25.707Z,963.25
2023-04-27T00:07:25.692Z,963.24
2023-04-27T00:08:25.670Z,963.24
2023-04-27T00:09:25.657Z,963.23
2023-04-27T00:10:25.655Z,963.22
2023-04-27T00:11:25.661Z,963.21
2023-04-27T00:12:25.637Z,963.20
2023-04-27T00:13:25.623Z,963.19
2023-04-27T00:14:25.604Z,963.20
2023-04-27T00:15:25.605Z,963.20
2023-04-27T00:16:25.655Z,963.21
2023-04-27T00:17:25.619Z,963.22
2023-04-27T00:18:25.564Z,963.21
2023-04-27T00:19:25.546Z,963.19
2023-04-27T00:20:25.575Z,963.18
2023-04-27T00:21:25.564Z,963.18
2023-04-27T00:22:25.519Z,963.19
2023-04-27T00:23:25.527Z,963.19
2023-04-27T00:24:25.510Z,963.20
2023-04-27T00:25:25.499Z,963.21
2023-04-27T00:26:25.508Z,963.20
2023-04-27T00:27:25.469Z,963.20
2023-04-27T00:28:25.465Z,963.19
2023-04-27T00:29:25.470Z,963.18
2023-04-27T00:30:25.468Z,963.19
2023-04-27T00:31:25.463Z,963.20
2023-04-27T00:32:25.478Z,963.20
2023-04-27T00:33:25.423Z,963.19
2023-04-27T00:34:25.411Z,963.17
2023-04-27T00:35:25.399Z,963.14
2023-04-27T00:36:25.429Z,963.13
2023-04-27T00:37:25.372Z,963.10
2023-04-27T00:38:25.367Z,963.08
2023-04-27T00:39:25.415Z,963.07
2023-04-27T00:40:25.355Z,963.06
2023-04-27T00:41:25.342Z,963.06
2023-04-27T00:42:25.329Z,963.06
2023-04-27T00:43:25.320Z,963.05
2023-04-27T00:44:25.307Z,963.03
2023-04-27T00:45:25.280Z,963.02
2023-04-27T00:46:25.359Z,963.02
2023-04-27T00:47:25.281Z,963.02
2023-04-27T00:48:25.289Z,963.01
2023-04-27T00:49:25.253Z,962.99
2023-04-27T00:50:25.236Z,962.97
2023-04-27T00:51:25.235Z,962.93
2023-04-27T00:52:25.216Z,962.90
2023-04-27T00:53:25.217Z,962.88
2023-04-27T00:54:25.209Z,962.87
2023-04-27T00:55:31.215Z,962.87
2023-04-27T00:56:25.195Z,962.88
2023-04-27T00:57:25.178Z,962.88
2023-04-27T00:58:25.173Z,962.88
2023-04-27T00:59:25.157Z,962.88
2023-04-27T01:00:25.167Z,962.88
2023-04-27T01:01:25.229Z,962.87
2023-04-27T01:02:25.223Z,962.87
2023-04-27T01:03:25.170Z,962.87
2023-04-27T01:04:25.227Z,962.87
2023-04-27T01:05:25.105Z,962.88
2023-04-27T01:06:25.128Z,962.90
2023-04-27T01:07:25.074Z,962.92
2023-04-27T01:08:25.061Z,962.93
2023-04-27T01:09:25.050Z,962.95
2023-04-27T01:10:25.048Z,962.97
2023-04-27T01:11:25.023Z,962.99
2023-04-27T01:12:25.028Z,962.99
2023-04-27T01:13:25.026Z,963.00
2023-04-27T01:14:24.991Z,963.01
2023-04-27T01:15:25.010Z,963.02
2023-04-27T01:16:25.027Z,963.02
2023-04-27T01:17:24.992Z,963.03
2023-04-27T01:18:24.990Z,963.04
2023-04-27T01:19:24.959Z,963.04
2023-04-27T01:20:24.963Z,963.05
2023-04-27T01:21:24.964Z,963.06
2023-04-27T01:22:24.935Z,963.07
2023-04-27T01:23:24.921Z,963.07
2023-04-27T01:24:24.905Z,963.06
2023-04-27T01:25:24.866Z,963.06
2023-04-27T01:26:24.885Z,963.06
2023-04-27T01:27:24.864Z,963.05
2023-04-27T01:28:24.847Z,963.05
2023-04-27T01:29:24.845Z,963.05
2023-04-27T01:30:24.848Z,963.05
2023-04-27T01:31:24.881Z,963.05
2023-04-27T01:32:24.828Z,963.05
2023-04-27T01:33:24.810Z,963.05
2023-04-27T01:34:24.800Z,963.04
2023-04-27T01:35:27.597Z,963.03
2023-04-27T01:36:24.795Z,963.03
2023-04-27T01:37:24.805Z,963.03
2023-04-27T01:38:24.762Z,963.01
2023-04-27T01:39:24.778Z,963.00
2023-04-27T01:40:24.768Z,962.99
2023-04-27T01:41:25.258Z,962.98
2023-04-27T01:42:24.711Z,962.96
2023-04-27T01:43:24.754Z,962.94
2023-04-27T01:44:24.691Z,962.93
2023-04-27T01:45:24.694Z,962.91
2023-04-27T01:46:24.726Z,962.90
2023-04-27T01:47:24.663Z,962.90
2023-04-27T01:48:24.639Z,962.89
2023-04-27T01:49:24.646Z,962.90
2023-04-27T01:50:24.643Z,962.91
2023-04-27T01:51:24.627Z,962.92
2023-04-27T01:52:24.611Z,962.93
2023-04-27T01:53:24.600Z,962.95
2023-04-27T01:54:25.978Z,962.96
2023-04-27T01:55:24.573Z,962.98
2023-04-27T01:56:24.610Z,963.00
2023-04-27T01:57:24.555Z,963.01
2023-04-27T01:58:24.560Z,963.03
2023-04-27T01:59:24.543Z,963.04
2023-04-27T02:00:24.550Z,963.05
2023-04-27T02:01:24.541Z,963.07
2023-04-27T02:02:24.646Z,963.08
2023-04-27T02:03:24.610Z,963.10
2023-04-27T02:04:24.814Z,963.10
2023-04-27T02:05:24.481Z,963.09
2023-04-27T02:06:24.504Z,963.08
2023-04-27T02:07:24.455Z,963.06
2023-04-27T02:08:24.438Z,963.06
2023-04-27T02:09:24.476Z,963.07
2023-04-27T02:10:24.451Z,963.08
2023-04-27T02:11:24.430Z,963.09
2023-04-27T02:12:24.409Z,963.10
2023-04-27T02:13:24.429Z,963.10
2023-04-27T02:14:24.386Z,963.10
2023-04-27T02:15:24.369Z,963.10
2023-04-27T02:16:24.470Z,963.09
2023-04-27T02:17:24.345Z,963.10
2023-04-27T02:18:24.367Z,963.11
2023-04-27T02:19:24.325Z,963.13
2023-04-27T02:20:24.323Z,963.15
2023-04-27T02:21:24.320Z,963.17
2023-04-27T02:22:24.310Z,963.18
2023-04-27T02:23:24.295Z,963.19
2023-04-27T02:24:24.302Z,963.21
2023-04-27T02:25:24.299Z,963.22
2023-04-27T02:26:24.280Z,963.23
2023-04-27T02:27:24.270Z,963.23
2023-04-27T02:28:24.241Z,963.22
2023-04-27T02:29:24.278Z,963.21
2023-04-27T02:30:24.231Z,963.20
2023-04-27T02:31:24.378Z,963.19
2023-04-27T02:32:24.276Z,963.18
2023-04-27T02:33:24.252Z,963.18
2023-04-27T02:34:24.206Z,963.17
2023-04-27T02:35:24.251Z,963.17
2023-04-27T02:36:24.189Z,963.16
2023-04-27T02:37:24.152Z,963.16
2023-04-27T02:38:24.169Z,963.16
2023-04-27T02:39:24.127Z,963.16
2023-04-27T02:40:24.128Z,963.17
2023-04-27T02:41:24.113Z,963.18
2023-04-27T02:42:24.096Z,963.19
2023-04-27T02:43:24.075Z,963.20
2023-04-27T02:44:24.086Z,963.20
2023-04-27T02:45:24.056Z,963.20
2023-04-27T02:46:24.081Z,963.21
2023-04-27T02:47:24.108Z,963.22
2023-04-27T02:48:24.068Z,963.24
2023-04-27T02:49:24.047Z,963.24
2023-04-27T02:50:24.016Z,963.25
2023-04-27T02:51:24.012Z,963.25
2023-04-27T02:52:23.999Z,963.24
2023-04-27T02:53:23.976Z,963.23
2023-04-27T02:54:23.973Z,963.21
2023-04-27T02:55:23.967Z,963.21
2023-04-27T02:56:24.042Z,963.22
2023-04-27T02:57:23.939Z,963.25
2023-04-27T02:58:23.947Z,963.27
2023-04-27T02:59:23.931Z,963.28
2023-04-27T03:00:23.920Z,963.29
2023-04-27T03:01:23.931Z,963.29
2023-04-27T03:02:23.985Z,963.27
2023-04-27T03:03:24.070Z,963.26
2023-04-27T03:04:23.962Z,963.25
2023-04-27T03:05:23.863Z,963.24
2023-04-27T03:06:23.869Z,963.22
2023-04-27T03:07:23.832Z,963.21
2023-04-27T03:08:23.824Z,963.21
2023-04-27T03:09:23.816Z,963.22
2023-04-27T03:10:23.820Z,963.23
2023-04-27T03:11:23.813Z,963.23
2023-04-27T03:12:23.792Z,963.22
2023-04-27T03:13:23.781Z,963.21
2023-04-27T03:14:23.798Z,963.21
2023-04-27T03:15:23.761Z,963.19
2023-04-27T03:16:23.783Z,963.18
2023-04-27T03:17:23.755Z,963.18
2023-04-27T03:18:23.724Z,963.18
2023-04-27T03:19:23.698Z,963.19
2023-04-27T03:20:23.718Z,963.19
2023-04-27T03:21:23.693Z,963.20
2023-04-27T03:22:23.698Z,963.22
2023-04-27T03:23:23.674Z,963.24
2023-04-27T03:24:23.654Z,963.26
2023-04-27T03:25:23.656Z,963.27
2023-04-27T03:26:23.648Z,963.28
2023-04-27T03:27:23.628Z,963.28
2023-04-27T03:28:23.631Z,963.27
2023-04-27T03:29:23.615Z,963.27
2023-04-27T03:30:23.606Z,963.27
2023-04-27T03:31:23.612Z,963.27
2023-04-27T03:32:23.613Z,963.25
2023-04-27T03:33:23.562Z,963.24
2023-04-27T03:34:23.576Z,963.23
2023-04-27T03:35:23.570Z,963.23
2023-04-27T03:36:23.560Z,963.23
2023-04-27T03:37:23.536Z,963.24
2023-04-27T03:38:23.524Z,963.24
2023-04-27T03:39:23.514Z,963.25
2023-04-27T03:40:23.561Z,963.26
2023-04-27T03:41:23.518Z,963.26
2023-04-27T03:42:23.420Z,963.26
2023-04-27T03:43:23.432Z,963.25
2023-04-27T03:44:23.413Z,963.25
2023-04-27T03:45:23.376Z,963.25
2023-04-27T03:46:23.460Z,963.26
2023-04-27T03:47:23.416Z,963.28
2023-04-27T03:48:23.373Z,963.30
2023-04-27T03:49:23.374Z,963.31
2023-04-27T03:50:23.353Z,963.32
2023-04-27T03:51:23.356Z,963.32
2023-04-27T03:52:24.256Z,963.31
2023-04-27T03:53:23.323Z,963.31
2023-04-27T03:54:23.298Z,963.31
2023-04-27T03:55:23.308Z,963.31
2023-04-27T03:56:23.291Z,963.31
2023-04-27T03:57:23.297Z,963.31
2023-04-27T03:58:23.261Z,963.32
2023-04-27T03:59:23.272Z,963.31
2023-04-27T04:00:23.249Z,963.31
2023-04-27T04:01:23.278Z,963.31
2023-04-27T04:02:23.450Z,963.31
2023-04-27T04:03:23.478Z,963.30
2023-04-27T04:04:24.316Z,963.29
2023-04-27T04:05:23.218Z,963.30
2023-04-27T04:06:23.188Z,963.31
2023-04-27T04:07:23.185Z,963.31
2023-04-27T04:08:23.170Z,963.32
2023-04-27T04:09:24.091Z,963.33
2023-04-27T04:10:23.139Z,963.34
2023-04-27T04:11:23.133Z,963.34
2023-04-27T04:12:23.123Z,963.34
2023-04-27T04:13:23.100Z,963.33
2023-04-27T04:14:23.134Z,963.32
2023-04-27T04:15:23.120Z,963.32
2023-04-27T04:16:23.208Z,963.33
2023-04-27T04:17:23.106Z,963.33
2023-04-27T04:18:23.058Z,963.34
2023-04-27T04:19:23.048Z,963.34
2023-04-27T04:20:23.043Z,963.35
2023-04-27T04:21:23.126Z,963.36
2023-04-27T04:22:23.013Z,963.37
2023-04-27T04:23:23.096Z,963.36
2023-04-27T04:24:23.024Z,963.36
2023-04-27T04:25:22.995Z,963.37
2023-04-27T04:26:22.967Z,963.38
2023-04-27T04:27:22.975Z,963.38
2023-04-27T04:28:22.960Z,963.39
2023-04-27T04:29:22.939Z,963.41
2023-04-27T04:30:22.958Z,963.42
2023-04-27T04:31:23.026Z,963.43
2023-04-27T04:32:22.993Z,963.44
2023-04-27T04:33:22.908Z,963.46
2023-04-27T04:34:22.889Z,963.46
2023-04-27T04:35:22.920Z,963.45
2023-04-27T04:36:22.866Z,963.45
2023-04-27T04:37:22.848Z,963.44
2023-04-27T04:38:22.953Z,963.45
2023-04-27T04:39:22.842Z,963.46
2023-04-27T04:40:22.849Z,963.47
2023-04-27T04:41:22.848Z,963.47
2023-04-27T04:42:22.824Z,963.47
2023-04-27T04:43:22.826Z,963.46
2023-04-27T04:44:22.786Z,963.46
2023-04-27T04:45:22.791Z,963.45
2023-04-27T04:46:22.768Z,963.45
2023-04-27T04:47:22.822Z,963.46
2023-04-27T04:48:22.732Z,963.47
2023-04-27T04:49:22.775Z,963.48
2023-04-27T04:50:22.741Z,963.49
2023-04-27T04:51:22.722Z,963.50
2023-04-27T04:52:22.710Z,963.50
2023-04-27T04:53:22.701Z,963.50
2023-04-27T04:54:22.689Z,963.49
2023-04-27T04:55:22.691Z,963.49
2023-04-27T04:56:22.665Z,963.48
2023-04-27T04:57:22.689Z,963.49
2023-04-27T04:58:22.646Z,963.50
2023-04-27T04:59:22.647Z,963.50
2023-04-27T05:00:22.735Z,963.50
2023-04-27T05:01:22.694Z,963.50
2023-04-27T05:02:22.781Z,963.49
2023-04-27T05:03:22.885Z,963.49
2023-04-27T05:04:22.807Z,963.49
2023-04-27T05:05:22.595Z,963.50
2023-04-27T05:06:22.571Z,963.50
2023-04-27T05:07:24.917Z,963.50
2023-04-27T05:08:22.559Z,963.50
2023-04-27T05:09:22.549Z,963.50
2023-04-27T05:10:22.523Z,963.49
2023-04-27T05:11:22.523Z,963.48
2023-04-27T05:12:22.522Z,963.49
2023-04-27T05:13:22.488Z,963.49
2023-04-27T05:14:22.487Z,963.50
2023-04-27T05:15:22.499Z,963.49
2023-04-27T05:16:23.174Z,963.49
2023-04-27T05:17:22.520Z,963.49
2023-04-27T05:18:22.448Z,963.49
2023-04-27T05:19:22.440Z,963.50
2023-04-27T05:20:22.448Z,963.50
2023-04-27T05:21:22.420Z,963.50
2023-04-27T05:22:22.402Z,963.51
2023-04-27T05:23:22.383Z,963.52
2023-04-27T05:24:22.380Z,963.53
2023-04-27T05:25:22.392Z,963.53
2023-04-27T05:26:22.366Z,963.54
2023-04-27T05:27:22.350Z,963.55
2023-04-27T05:28:22.331Z,963.55
2023-04-27T05:29:22.336Z,963.55
2023-04-27T05:30:22.318Z,963.56
2023-04-27T05:31:22.343Z,963.57
2023-04-27T05:32:22.375Z,963.59
2023-04-27T05:33:22.312Z,963.61
2023-04-27T05:34:22.267Z,963.62
2023-04-27T05:35:22.300Z,963.61
2023-04-27T05:36:22.288Z,963.62
2023-04-27T05:37:22.248Z,963.63
2023-04-27T05:38:22.218Z,963.64
2023-04-27T05:39:22.222Z,963.64
2023-04-27T05:40:22.236Z,963.64
2023-04-27T05:41:22.221Z,963.63
2023-04-27T05:42:22.201Z,963.63
2023-04-27T05:43:22.186Z,963.64
2023-04-27T05:44:22.177Z,963.65
2023-04-27T05:45:22.193Z,963.65
2023-04-27T05:46:22.264Z,963.65
2023-04-27T05:47:22.181Z,963.64
2023-04-27T05:48:22.138Z,963.64
2023-04-27T05:49:22.138Z,963.64
2023-04-27T05:50:22.140Z,963.65
2023-04-27T05:51:22.096Z,963.66
2023-04-27T05:52:22.119Z,963.68
2023-04-27T05:53:22.096Z,963.69
2023-04-27T05:54:22.084Z,963.70
2023-04-27T05:55:22.097Z,963.71
2023-04-27T05:56:22.072Z,963.73
2023-04-27T05:57:22.062Z,963.74
2023-04-27T05:58:22.030Z,963.75
2023-04-27T05:59:22.052Z,963.75
2023-04-27T06:00:22.031Z,963.76
2023-04-27T06:01:22.028Z,963.77
2023-04-27T06:02:22.057Z,963.78
2023-04-27T06:03:22.129Z,963.79
2023-04-27T06:04:22.259Z,963.80
2023-04-27T06:05:22.054Z,963.81
2023-04-27T06:06:21.957Z,963.82
2023-04-27T06:07:21.956Z,963.82
2023-04-27T06:08:21.929Z,963.83
2023-04-27T06:09:21.933Z,963.84
2023-04-27T06:10:21.920Z,963.85
2023-04-27T06:11:21.897Z,963.86
2023-04-27T06:12:21.906Z,963.87
2023-04-27T06:13:21.884Z,963.88
2023-04-27T06:14:21.944Z,963.89
2023-04-27T06:15:21.888Z,963.88
2023-04-27T06:16:21.953Z,963.88
2023-04-27T06:17:21.956Z,963.88
2023-04-27T06:18:21.859Z,963.88
2023-04-27T06:19:21.849Z,963.90
2023-04-27T06:20:21.883Z,963.92
2023-04-27T06:21:21.801Z,963.95
2023-04-27T06:22:21.799Z,963.97
2023-04-27T06:23:21.787Z,963.98
2023-04-27T06:24:21.771Z,963.98
2023-04-27T06:25:22.808Z,963.97
2023-04-27T06:26:21.766Z,963.97
2023-04-27T06:27:21.738Z,963.98
2023-04-27T06:28:21.745Z,964.00
2023-04-27T06:29:21.728Z,964.01
2023-04-27T06:30:21.716Z,964.02
2023-04-27T06:31:21.764Z,964.02
2023-04-27T06:32:21.705Z,964.03
2023-04-27T06:33:21.672Z,964.04
2023-04-27T06:34:21.668Z,964.05
2023-04-27T06:35:21.661Z,964.07
2023-04-27T06:36:21.655Z,964.08
2023-04-27T06:37:21.634Z,964.09
2023-04-27T06:38:21.619Z,964.10
2023-04-27T06:39:21.617Z,964.10
2023-04-27T06:40:21.609Z,964.09
2023-04-27T06:41:21.589Z,964.09
2023-04-27T06:42:21.586Z,964.10
2023-04-27T06:43:21.575Z,964.11
2023-04-27T06:44:21.595Z,964.11
2023-04-27T06:45:21.565Z,964.11
2023-04-27T06:46:21.593Z,964.11
2023-04-27T06:47:21.519Z,964.11
2023-04-27T06:48:21.606Z,964.11
2023-04-27T06:49:21.574Z,964.10
2023-04-27T06:50:21.645Z,964.10
2023-04-27T06:51:21.484Z,964.10
2023-04-27T06:52:21.471Z,964.10
2023-04-27T06:53:21.511Z,964.10
2023-04-27T06:54:21.445Z,964.10
2023-04-27T06:55:21.478Z,964.09
2023-04-27T06:56:27.438Z,964.10
2023-04-27T06:57:21.412Z,964.11
2023-04-27T06:58:21.408Z,964.10
2023-04-27T06:59:21.418Z,964.10
2023-04-27T07:00:21.429Z,964.09
2023-04-27T07:01:21.430Z,964.09
2023-04-27T07:02:23.128Z,964.09
2023-04-27T07:03:21.550Z,964.09
2023-04-27T07:04:21.551Z,964.10
2023-04-27T07:05:21.371Z,964.09
2023-04-27T07:06:21.341Z,964.09
2023-04-27T07:07:21.351Z,964.09
2023-04-27T07:08:21.313Z,964.09
2023-04-27T07:10:21.302Z,964.11
2023-04-27T07:11:21.295Z,964.11
2023-04-27T07:12:21.305Z,964.11
2023-04-27T07:13:21.256Z,964.12
2023-04-27T07:14:21.264Z,964.12
2023-04-27T07:15:21.360Z,964.12
2023-04-27T07:16:21.283Z,964.12
2023-04-27T07:17:21.255Z,964.12
2023-04-27T07:18:21.222Z,964.13
2023-04-27T07:19:21.204Z,964.13
2023-04-27T07:20:21.225Z,964.13
2023-04-27T07:21:21.191Z,964.13
2023-04-27T07:22:21.238Z,964.12
2023-04-27T07:23:21.180Z,964.11
2023-04-27T07:24:21.144Z,964.10
2023-04-27T07:25:21.168Z,964.08
2023-04-27T07:26:21.123Z,964.07
2023-04-27T07:27:21.122Z,964.06
2023-04-27T07:28:21.120Z,964.07
2023-04-27T07:29:26.935Z,964.09
2023-04-27T07:30:21.091Z,964.09
2023-04-27T07:31:21.093Z,964.09
2023-04-27T07:32:21.110Z,964.09
2023-04-27T07:33:21.065Z,964.08
2023-04-27T07:34:21.056Z,964.08
2023-04-27T07:35:21.080Z,964.06
2023-04-27T07:36:21.020Z,964.07
2023-04-27T07:37:21.046Z,964.06
2023-04-27T07:38:21.017Z,964.06
2023-04-27T07:39:20.991Z,964.06
2023-04-27T07:40:20.992Z,964.07
2023-04-27T07:41:20.980Z,964.06
2023-04-27T07:42:20.948Z,964.04
2023-04-27T07:43:20.950Z,964.04
2023-04-27T07:44:20.932Z,964.04
2023-04-27T07:45:20.938Z,964.04
2023-04-27T07:46:20.977Z,964.04
2023-04-27T07:47:20.905Z,964.03
2023-04-27T07:48:20.939Z,964.03
2023-04-27T07:49:20.893Z,964.03
2023-04-27T07:50:20.876Z,964.04
2023-04-27T07:51:20.890Z,964.04
2023-04-27T07:52:20.847Z,964.03
2023-04-27T07:53:20.841Z,964.02
2023-04-27T07:54:20.817Z,964.03
2023-04-27T07:55:20.822Z,964.02
2023-04-27T07:56:20.809Z,964.01
2023-04-27T07:57:20.789Z,964.00
2023-04-27T07:58:20.790Z,963.99
2023-04-27T07:59:20.789Z,963.99
2023-04-27T08:00:20.768Z,963.98
2023-04-27T08:01:21.505Z,963.98
2023-04-27T08:02:20.819Z,964.00
2023-04-27T08:03:20.878Z,964.02
2023-04-27T08:04:20.973Z,964.03
2023-04-27T08:05:21.277Z,964.02
2023-04-27T08:06:20.929Z,964.01
2023-04-27T08:07:20.744Z,964.02
2023-04-27T08:08:20.937Z,964.00
2023-04-27T08:09:20.675Z,963.98
2023-04-27T08:10:20.666Z,963.98
2023-04-27T08:11:20.651Z,963.98
2023-04-27T08:12:20.656Z,964.00
2023-04-27T08:13:20.641Z,964.01
2023-04-27T08:14:20.615Z,964.00
2023-04-27T08:15:20.628Z,964.01
2023-04-27T08:16:20.623Z,964.00
2023-04-27T08:17:20.591Z,963.99
2023-04-27T08:18:20.578Z,963.97
2023-04-27T08:19:20.570Z,963.96
2023-04-27T08:20:20.579Z,963.95
2023-04-27T08:21:20.550Z,963.95
2023-04-27T08:22:20.536Z,963.93
2023-04-27T08:23:20.516Z,963.92
2023-04-27T08:24:20.524Z,963.90
2023-04-27T08:25:20.523Z,963.87
2023-04-27T08:26:20.483Z,963.85
2023-04-27T08:27:20.491Z,963.84
2023-04-27T08:28:20.484Z,963.85
2023-04-27T08:29:27.830Z,963.86
2023-04-27T08:30:20.474Z,963.85
2023-04-27T08:31:20.501Z,963.84
2023-04-27T08:32:20.434Z,963.84
2023-04-27T08:33:20.415Z,963.83
2023-04-27T08:34:20.409Z,963.81
2023-04-27T08:35:20.427Z,963.80
2023-04-27T08:36:20.397Z,963.80
2023-04-27T08:37:20.396Z,963.79
2023-04-27T08:38:20.388Z,963.78
2023-04-27T08:39:20.362Z,963.78
2023-04-27T08:40:20.381Z,963.77
2023-04-27T08:41:22.115Z,963.77
2023-04-27T08:42:20.329Z,963.76
2023-04-27T08:43:20.332Z,963.75
2023-04-27T08:44:20.305Z,963.79
2023-04-27T08:45:20.298Z,963.78
2023-04-27T08:46:20.361Z,963.79
2023-04-27T08:47:28.401Z,963.78
2023-04-27T08:48:20.298Z,963.76
2023-04-27T08:49:20.596Z,963.77
2023-04-27T08:50:20.269Z,963.76
2023-04-27T08:51:20.248Z,963.75
2023-04-27T08:52:20.230Z,963.75
2023-04-27T08:53:20.215Z,963.74
2023-04-27T08:54:20.209Z,963.75
2023-04-27T08:55:20.220Z,963.73
2023-04-27T08:56:20.195Z,963.73
2023-04-27T08:57:20.180Z,963.75
2023-04-27T08:58:20.168Z,963.75
2023-04-27T08:59:20.156Z,963.76
2023-04-27T09:00:20.195Z,963.75
2023-04-27T09:01:20.158Z,963.76
2023-04-27T09:02:20.223Z,963.77
2023-04-27T09:03:20.340Z,963.75
2023-04-27T09:04:20.347Z,963.73
2023-04-27T09:05:20.160Z,963.72
2023-04-27T09:06:20.116Z,963.72
2023-04-27T09:07:20.201Z,963.72
2023-04-27T09:08:20.077Z,963.72
2023-04-27T09:09:20.066Z,963.72
2023-04-27T09:10:20.055Z,963.74
2023-04-27T09:11:20.082Z,963.75
2023-04-27T09:12:20.023Z,963.77
2023-04-27T09:13:20.021Z,963.76
2023-04-27T09:14:19.992Z,963.77
2023-04-27T09:15:20.002Z,963.78
2023-04-27T09:16:20.090Z,963.79
2023-04-27T09:17:19.989Z,963.81
2023-04-27T09:18:19.960Z,963.80
2023-04-27T09:19:19.934Z,963.82
2023-04-27T09:20:19.959Z,963.84
2023-04-27T09:21:19.925Z,963.84
2023-04-27T09:22:19.918Z,963.84
2023-04-27T09:23:19.895Z,963.83
2023-04-27T09:24:20.122Z,963.83
2023-04-27T09:25:19.892Z,963.83
2023-04-27T09:26:19.947Z,963.85
2023-04-27T09:27:19.871Z,963.85
2023-04-27T09:28:19.932Z,963.86
2023-04-27T09:29:19.849Z,963.87
2023-04-27T09:30:19.869Z,963.87
2023-04-27T09:31:19.860Z,963.86
2023-04-27T09:32:19.826Z,963.83
2023-04-27T09:33:19.814Z,963.81
2023-04-27T09:34:19.795Z,963.78
2023-04-27T09:35:19.812Z,963.75
2023-04-27T09:36:19.764Z,963.73
2023-04-27T09:37:19.763Z,963.72
2023-04-27T09:38:19.837Z,963.74
2023-04-27T09:39:19.782Z,963.76
2023-04-27T09:40:19.814Z,963.76
2023-04-27T09:41:19.866Z,963.76
2023-04-27T09:42:19.748Z,963.74
2023-04-27T09:43:19.715Z,963.76
2023-04-27T09:44:19.719Z,963.77
2023-04-27T09:45:19.820Z,963.77
2023-04-27T09:46:19.700Z,963.78
2023-04-27T09:47:19.702Z,963.80
2023-04-27T09:48:19.684Z,963.79
2023-04-27T09:49:19.716Z,963.74
2023-04-27T09:50:19.794Z,963.73
2023-04-27T09:51:19.706Z,963.70
2023-04-27T09:52:19.645Z,963.69
2023-04-27T09:53:19.644Z,963.70
2023-04-27T09:54:19.587Z,963.73
2023-04-27T09:55:19.584Z,963.77
2023-04-27T09:56:19.575Z,963.78
2023-04-27T09:57:19.552Z,963.79
2023-04-27T09:58:19.553Z,963.78
2023-04-27T09:59:19.535Z,963.78
2023-04-27T10:00:19.532Z,963.74
2023-04-27T10:01:19.542Z,963.71
2023-04-27T10:02:25.115Z,963.71
2023-04-27T10:03:19.609Z,963.70
2023-04-27T10:04:19.664Z,963.70
2023-04-27T10:05:19.499Z,963.70
2023-04-27T10:06:19.462Z,963.69
2023-04-27T10:07:19.475Z,963.68
2023-04-27T10:08:19.457Z,963.70
2023-04-27T10:09:19.431Z,963.72
2023-04-27T10:10:19.497Z,963.70
2023-04-27T10:11:19.436Z,963.70
2023-04-27T10:12:19.423Z,963.70
2023-04-27T10:13:19.389Z,963.70
2023-04-27T10:14:19.385Z,963.72
2023-04-27T10:15:19.364Z,963.72
2023-04-27T10:16:19.388Z,963.74
2023-04-27T10:17:19.340Z,963.76
2023-04-27T10:18:19.331Z,963.75
2023-04-27T10:19:19.327Z,963.73
2023-04-27T10:20:19.321Z,963.73
2023-04-27T10:21:19.286Z,963.71
2023-04-27T10:22:19.281Z,963.69
2023-04-27T10:23:19.283Z,963.68
2023-04-27T10:24:19.262Z,963.67
2023-04-27T10:25:19.334Z,963.68
2023-04-27T10:26:19.246Z,963.68
2023-04-27T10:27:19.245Z,963.68
2023-04-27T10:28:19.234Z,963.68
2023-04-27T10:29:19.234Z,963.69
2023-04-27T10:30:19.251Z,963.69
2023-04-27T10:31:19.237Z,963.68
2023-04-27T10:32:19.222Z,963.70
2023-04-27T10:33:19.177Z,963.69
2023-04-27T10:34:21.381Z,963.69
2023-04-27T10:35:19.192Z,963.68
2023-04-27T10:36:19.145Z,963.62
2023-04-27T10:37:19.158Z,963.61
2023-04-27T10:38:19.135Z,963.60
2023-04-27T10:39:19.146Z,963.58
2023-04-27T10:40:19.302Z,963.56
2023-04-27T10:41:19.089Z,963.55
2023-04-27T10:42:19.099Z,963.56
2023-04-27T10:43:19.084Z,963.57
2023-04-27T10:44:19.064Z,963.59
2023-04-27T10:45:19.076Z,963.53
2023-04-27T10:46:19.072Z,963.52
2023-04-27T10:47:19.046Z,963.52
2023-04-27T10:48:19.047Z,963.57
2023-04-27T10:49:19.011Z,963.51
2023-04-27T10:50:19.028Z,963.51
2023-04-27T10:51:18.986Z,963.50
2023-04-27T10:52:19.004Z,963.50
2023-04-27T10:53:18.980Z,963.53
2023-04-27T10:54:18.991Z,963.52
2023-04-27T10:55:18.972Z,963.49
2023-04-27T10:56:18.952Z,963.52
2023-04-27T10:57:18.912Z,963.53
2023-04-27T10:58:18.938Z,963.55
2023-04-27T10:59:18.914Z,963.58
2023-04-27T11:00:18.923Z,963.58
2023-04-27T11:01:18.940Z,963.59
2023-04-27T11:02:18.926Z,963.59
2023-04-27T11:03:18.939Z,963.62
2023-04-27T11:04:19.073Z,963.61
2023-04-27T11:05:18.892Z,963.63
2023-04-27T11:06:18.927Z,963.60
2023-04-27T11:07:18.823Z,963.60
2023-04-27T11:08:18.813Z,963.58
2023-04-27T11:09:18.796Z,963.58
2023-04-27T11:10:18.804Z,963.56
2023-04-27T11:11:18.787Z,963.52
2023-04-27T11:12:18.818Z,963.50
2023-04-27T11:13:18.759Z,963.47
2023-04-27T11:14:18.751Z,963.49
2023-04-27T11:15:18.767Z,963.50
2023-04-27T11:16:18.769Z,963.49
2023-04-27T11:17:18.749Z,963.49
2023-04-27T11:18:18.715Z,963.51
2023-04-27T11:19:18.693Z,963.51
2023-04-27T11:20:18.718Z,963.51
2023-04-27T11:21:18.700Z,963.50
2023-04-27T11:22:18.673Z,963.48
2023-04-27T11:23:18.660Z,963.46
2023-04-27T11:24:18.671Z,963.46
2023-04-27T11:25:18.660Z,963.46
2023-04-27T11:26:18.644Z,963.45
2023-04-27T11:27:18.684Z,963.45
2023-04-27T11:28:18.635Z,963.45
2023-04-27T11:29:18.614Z,963.47
2023-04-27T11:30:18.642Z,963.45
2023-04-27T11:31:18.626Z,963.45
2023-04-27T11:32:18.563Z,963.44
2023-04-27T11:33:18.541Z,963.47
2023-04-27T11:34:19.553Z,963.47
2023-04-27T11:35:18.604Z,963.50
2023-04-27T11:36:18.529Z,963.48
2023-04-27T11:37:18.884Z,963.50
2023-04-27T11:38:18.499Z,963.49
2023-04-27T11:39:18.580Z,963.51
2023-04-27T11:40:18.520Z,963.51
2023-04-27T11:41:18.489Z,963.53
2023-04-27T11:42:18.480Z,963.54
2023-04-27T11:43:18.453Z,963.54
2023-04-27T11:44:18.450Z,963.55
2023-04-27T11:45:18.452Z,963.56
2023-04-27T11:46:18.460Z,963.58
2023-04-27T11:47:19.084Z,963.58
2023-04-27T11:48:18.405Z,963.55
2023-04-27T11:49:18.386Z,963.54
2023-04-27T11:50:18.400Z,963.53
2023-04-27T11:51:18.386Z,963.50
2023-04-27T11:52:18.369Z,963.48
2023-04-27T11:53:18.994Z,963.45
2023-04-27T11:54:18.340Z,963.44
2023-04-27T11:55:18.359Z,963.42
2023-04-27T11:56:18.320Z,963.40
2023-04-27T11:57:18.312Z,963.39
2023-04-27T11:58:18.300Z,963.38
2023-04-27T11:59:18.285Z,963.34
2023-04-27T12:00:18.302Z,963.34
2023-04-27T12:01:27.531Z,963.34
2023-04-27T12:02:18.385Z,963.34
2023-04-27T12:03:18.512Z,963.34
2023-04-27T12:04:18.750Z,963.33
2023-04-27T12:05:18.301Z,963.34
2023-04-27T12:07:18.214Z,963.30
2023-04-27T12:08:18.232Z,963.33
2023-04-27T12:09:18.185Z,963.31
2023-04-27T12:10:18.200Z,963.29
2023-04-27T12:11:18.158Z,963.29
2023-04-27T12:12:18.154Z,963.28
2023-04-27T12:13:18.123Z,963.28
2023-04-27T12:14:18.141Z,963.28
2023-04-27T12:15:18.166Z,963.27
2023-04-27T12:16:18.165Z,963.27
2023-04-27T12:17:18.167Z,963.28
2023-04-27T12:18:18.155Z,963.27
2023-04-27T12:19:18.117Z,963.25
2023-04-27T12:20:18.154Z,963.24
2023-04-27T12:21:18.058Z,963.22
2023-04-27T12:22:18.061Z,963.22
2023-04-27T12:23:18.045Z,963.20
2023-04-27T12:24:18.047Z,963.20
2023-04-27T12:25:18.064Z,963.18
2023-04-27T12:26:18.010Z,963.17
2023-04-27T12:27:18.008Z,963.17
2023-04-27T12:28:17.992Z,963.19
2023-04-27T12:29:17.985Z,963.20
2023-04-27T12:30:17.989Z,963.20